Time;durP1;ratioP1;P1;durP2;ratioP2;P2;SDS_P1;SDS_P2;PMS_P1;PMS_P2;Temp;Humidity;BMP_temperature;BMP_pressure;BME280_temperature;BME280_humidity;BME280_pressure;Samples;Min_cycle;Max_cycle;Signal;HPM_P1;HPM_P2
2022/07/06 00:01:34;;;;;;;8.53;7.12;;;;;;;27.44;50.71;99470.94;1711220;83;21469;-63
2022/07/06 00:04:02;;;;;;;8.98;7.00;;;;;;;27.38;50.95;99468.95;1711882;83;21440;-62
2022/07/06 00:06:29;;;;;;;7.45;6.85;;;;;;;27.36;51.04;99462.38;1717483;82;20976;-63
2022/07/06 00:08:55;;;;;;;9.15;7.30;;;;;;;27.36;50.98;99457.50;1709832;83;21583;-63
2022/07/06 00:11:22;;;;;;;8.18;7.47;;;;;;;27.37;51.08;99461.38;1713518;83;21592;-63
2022/07/06 00:13:49;;;;;;;9.13;7.42;;;;;;;27.33;51.09;99461.41;1713251;83;21724;-63
2022/07/06 00:16:15;;;;;;;7.85;7.00;;;;;;;27.32;51.45;99466.98;1710745;82;21424;-63
2022/07/06 00:18:43;;;;;;;;;;;;;;;27.28;51.64;99464.31;1718958;82;20996;-64
2022/07/06 00:21:09;;;;;;;8.53;6.90;;;;;;;27.23;51.94;99463.97;1715031;82;20510;-63
2022/07/06 00:23:36;;;;;;;8.20;7.10;;;;;;;27.17;51.63;99465.52;1714495;81;21452;-64
2022/07/06 00:26:03;;;;;;;8.83;7.22;;;;;;;27.15;51.50;99464.86;1693806;82;21412;-64
2022/07/06 00:28:30;;;;;;;7.92;7.22;;;;;;;27.12;51.49;99464.68;1683698;83;21491;-63
2022/07/06 00:30:57;;;;;;;;;;;;;;;27.11;51.51;99458.97;1679956;84;21511;-62
2022/07/06 00:33:24;;;;;;;8.95;8.10;;;;;;;27.08;51.86;99459.31;1664994;83;20206;-62
2022/07/06 00:35:50;;;;;;;8.30;7.60;;;;;;;26.99;51.66;99459.88;1678548;84;21527;-62
2022/07/06 00:38:17;;;;;;;8.43;7.65;;;;;;;26.99;51.81;99461.72;1675331;84;21887;-62
2022/07/06 00:40:44;;;;;;;8.20;7.40;;;;;;;26.96;51.84;99458.88;1674277;84;20982;-62
2022/07/06 00:43:11;;;;;;;8.18;7.37;;;;;;;26.93;51.88;99465.13;1677313;84;21082;-62
2022/07/06 00:45:38;;;;;;;8.13;7.40;;;;;;;26.92;51.89;99463.46;1683283;84;21451;-62
2022/07/06 00:48:05;;;;;;;8.73;7.92;;;;;;;26.91;52.33;99467.16;1681873;84;21531;-62
2022/07/06 00:50:33;;;;;;;10.53;8.05;;;;;;;26.90;52.43;99461.42;1677039;84;21789;-62
2022/07/06 00:53:02;;;;;;;9.13;8.25;;;;;;;26.87;52.37;99458.58;1680567;84;21500;-62
2022/07/06 00:55:32;;;;;;;10.03;8.58;;;;;;;26.87;52.28;99463.14;1679632;84;21444;-62
2022/07/06 00:58:02;;;;;;;8.93;8.03;;;;;;;26.84;52.27;99458.09;1684498;84;21006;-62
2022/07/06 01:00:30;;;;;;;8.90;8.30;;;;;;;26.80;52.37;99463.85;1677431;84;21442;-63
2022/07/06 01:02:57;;;;;;;9.03;8.15;;;;;;;26.73;52.42;99458.82;1680032;84;21649;-63
2022/07/06 01:05:24;;;;;;;10.13;8.63;;;;;;;26.74;52.46;99460.48;1668006;84;21047;-63
2022/07/06 01:07:52;;;;;;;11.28;8.30;;;;;;;26.75;52.36;99464.88;1682543;84;21499;-64
2022/07/06 01:10:20;;;;;;;;;;;;;;;26.73;52.47;99460.16;1681373;84;21526;-63
2022/07/06 01:12:47;;;;;;;9.05;7.97;;;;;;;26.71;52.91;99455.94;1677427;84;20173;-64
2022/07/06 01:15:19;;;;;;;9.73;8.85;;;;;;;26.64;52.65;99459.86;1678270;83;21487;-63
2022/07/06 01:17:48;;;;;;;9.03;8.13;;;;;;;26.62;52.69;99457.84;1676784;84;21500;-63
2022/07/06 01:20:22;;;;;;;8.33;7.62;;;;;;;26.64;52.86;99457.16;1683295;83;21475;-63
2022/07/06 01:22:51;;;;;;;10.15;8.00;;;;;;;26.65;52.58;99456.64;1676863;84;21564;-62
2022/07/06 01:25:18;;;;;;;8.95;7.60;;;;;;;26.69;52.42;99458.84;1676606;84;21586;-61
2022/07/06 01:27:45;;;;;;;8.65;7.83;;;;;;;26.66;52.51;99459.17;1678187;83;21920;-61
2022/07/06 01:30:15;;;;;;;;;;;;;;;26.66;52.46;99459.69;1680410;84;21498;-63
2022/07/06 01:32:41;;;;;;;8.55;7.85;;;;;;;26.73;52.65;99457.95;1684987;84;20415;-63
2022/07/06 01:35:10;;;;;;;8.53;7.72;;;;;;;26.84;51.84;99455.39;1682806;84;21523;-62
2022/07/06 01:37:38;;;;;;;9.15;7.67;;;;;;;26.98;51.56;99450.09;1681958;84;20999;-63
2022/07/06 01:40:07;;;;;;;8.98;8.08;;;;;;;27.05;51.41;99447.55;1686092;84;21813;-63
2022/07/06 01:42:34;;;;;;;8.80;7.72;;;;;;;27.05;51.35;99441.28;1684066;84;21441;-63
2022/07/06 01:45:02;;;;;;;9.93;7.35;;;;;;;27.06;51.11;99446.52;1686768;84;21586;-62
2022/07/06 01:47:29;;;;;;;9.00;8.05;;;;;;;26.96;51.35;99446.73;1686581;83;21566;-62
2022/07/06 01:50:04;;;;;;;8.53;7.22;;;;;;;26.92;51.48;99445.93;1687586;84;20978;-63
2022/07/06 01:52:33;;;;;;;8.70;7.80;;;;;;;26.92;51.47;99447.28;1683137;84;21857;-62
2022/07/06 01:55:02;;;;;;;8.28;7.47;;;;;;;26.93;51.42;99448.42;1683977;84;21590;-62
2022/07/06 01:57:30;;;;;;;9.00;8.13;;;;;;;26.97;51.23;99446.22;1686092;83;21511;-64
2022/07/06 01:59:57;;;;;;;8.58;7.58;;;;;;;26.86;51.50;99452.00;1688532;84;20998;-63
2022/07/06 02:02:24;;;;;;;8.53;7.72;;;;;;;26.96;51.46;99452.65;1681807;83;20999;-62
2022/07/06 02:04:51;;;;;;;7.97;7.28;;;;;;;26.98;51.65;99451.96;1689274;84;21966;-62
2022/07/06 02:07:17;;;;;;;8.80;7.95;;;;;;;26.91;51.90;99453.68;1676937;83;21551;-63
2022/07/06 02:09:44;;;;;;;12.55;8.45;;;;;;;26.94;52.29;99450.64;1679499;84;21026;-59
2022/07/06 02:12:10;;;;;;;9.90;7.43;;;;;;;26.94;52.51;99449.30;1682599;84;21492;-59
2022/07/06 02:14:38;;;;;;;8.65;7.95;;;;;;;26.93;52.65;99452.98;1679969;84;21419;-59
2022/07/06 02:17:05;;;;;;;8.58;7.80;;;;;;;26.95;52.85;99453.13;1679136;84;21702;-59
2022/07/06 02:19:33;;;;;;;8.48;7.40;;;;;;;27.00;52.95;99444.53;1686927;84;21531;-59
2022/07/06 02:22:00;;;;;;;10.32;7.75;;;;;;;26.98;53.03;99447.91;1674890;84;21633;-59
2022/07/06 02:24:27;;;;;;;8.60;7.75;;;;;;;27.00;53.09;99449.41;1681325;84;21421;-59
2022/07/06 02:26:54;;;;;;;13.38;8.88;;;;;;;27.01;53.01;99442.15;1708287;82;21464;-59
2022/07/06 02:29:21;;;;;;;9.15;8.00;;;;;;;26.96;53.21;99443.20;1727696;82;21733;-59
2022/07/06 02:31:48;;;;;;;9.18;8.28;;;;;;;26.93;53.45;99441.69;1725163;80;21448;-59
2022/07/06 02:34:15;;;;;;;8.70;7.90;;;;;;;26.95;53.38;99449.09;1725906;82;21491;-60
2022/07/06 02:36:42;;;;;;;9.50;8.23;;;;;;;26.95;53.52;99436.95;1730504;82;21443;-60
2022/07/06 02:39:09;;;;;;;8.55;7.60;;;;;;;26.97;53.51;99440.83;1727344;82;21527;-59
2022/07/06 02:41:36;;;;;;;8.90;7.58;;;;;;;27.00;53.50;99448.06;1720127;81;21428;-59
2022/07/06 02:44:04;;;;;;;9.70;8.10;;;;;;;27.05;53.82;99444.84;1730975;82;21646;-60
2022/07/06 02:46:31;;;;;;;8.18;7.47;;;;;;;27.07;53.58;99444.64;1721281;82;21512;-59
2022/07/06 02:48:57;;;;;;;9.20;8.18;;;;;;;27.09;53.41;99446.69;1728583;82;21538;-59
2022/07/06 02:51:24;;;;;;;8.38;7.67;;;;;;;27.09;53.30;99443.98;1726648;82;21405;-59
2022/07/06 02:53:51;;;;;;;8.63;7.75;;;;;;;27.15;53.32;99442.75;1722627;82;21780;-59
2022/07/06 02:56:18;;;;;;;8.63;7.83;;;;;;;27.23;53.51;99444.56;1731679;82;21603;-59
2022/07/06 02:58:44;;;;;;;8.97;7.60;;;;;;;27.25;53.61;99443.91;1730780;82;21453;-60
2022/07/06 03:01:12;;;;;;;11.75;7.78;;;;;;;27.38;53.56;99440.62;1724110;82;21447;-59
2022/07/06 03:03:41;;;;;;;8.55;7.83;;;;;;;27.37;53.31;99445.70;1730645;82;21432;-59
2022/07/06 03:06:08;;;;;;;8.80;8.03;;;;;;;27.43;53.08;99441.45;1733498;82;22065;-59
2022/07/06 03:08:35;;;;;;;9.65;8.15;;;;;;;27.35;53.41;99445.02;1726242;82;21620;-59
2022/07/06 03:11:01;;;;;;;8.67;7.87;;;;;;;27.26;53.97;99442.89;1720475;82;21488;-59
2022/07/06 03:13:29;;;;;;;9.98;7.75;;;;;;;27.31;54.11;99445.91;1729987;82;21883;-59
2022/07/06 03:15:57;;;;;;;8.93;7.83;;;;;;;27.31;54.13;99443.20;1735354;82;20999;-59
2022/07/06 03:18:24;;;;;;;11.00;7.62;;;;;;;27.34;54.11;99440.65;1731652;80;21775;-60
2022/07/06 03:20:51;;;;;;;8.73;7.92;;;;;;;27.35;54.03;99436.91;1723084;80;21499;-59
2022/07/06 03:23:19;;;;;;;9.18;8.00;;;;;;;27.36;54.20;99437.26;1733609;82;21682;-58
2022/07/06 03:25:46;;;;;;;10.23;9.27;;;;;;;27.41;54.14;99445.67;1730379;82;21038;-59
2022/07/06 03:28:12;;;;;;;11.12;8.65;;;;;;;27.43;54.16;99442.80;1718768;82;21503;-58
2022/07/06 03:30:39;;;;;;;8.83;8.03;;;;;;;27.47;54.50;99439.55;1709052;83;21742;-58
2022/07/06 03:33:07;;;;;;;12.85;8.33;;;;;;;27.55;54.34;99444.87;1712237;83;21110;-57
2022/07/06 03:35:35;;;;;;;10.43;8.00;;;;;;;27.68;54.01;99445.62;1717970;83;21516;-58
2022/07/06 03:38:02;;;;;;;11.68;8.05;;;;;;;27.80;54.03;99449.23;1709518;82;21603;-58
2022/07/06 03:40:30;;;;;;;8.35;7.65;;;;;;;27.90;54.06;99448.53;1716723;83;21623;-58
2022/07/06 03:42:57;;;;;;;11.70;8.50;;;;;;;27.96;53.88;99447.78;1717073;83;21770;-59
2022/07/06 03:45:25;;;;;;;8.93;7.75;;;;;;;28.05;53.66;99443.13;1715597;83;21420;-58
2022/07/06 03:47:52;;;;;;;9.33;8.43;;;;;;;28.10;53.08;99442.91;1719717;82;21532;-58
2022/07/06 03:50:20;;;;;;;11.38;8.63;;;;;;;28.10;52.52;99439.37;1717544;81;21587;-57
2022/07/06 03:52:47;;;;;;;8.93;8.13;;;;;;;28.10;52.58;99436.66;1712375;83;20984;-57
2022/07/06 03:55:14;;;;;;;8.63;7.78;;;;;;;28.11;52.70;99442.41;1715252;83;21540;-58
2022/07/06 03:57:43;;;;;;;8.65;7.85;;;;;;;28.13;52.81;99443.06;1710907;82;21600;-58
2022/07/06 04:00:12;;;;;;;9.10;8.30;;;;;;;28.15;52.86;99442.37;1714982;83;21493;-59
2022/07/06 04:02:43;;;;;;;9.53;8.58;;;;;;;28.26;52.88;99445.14;1716835;82;21539;-59
2022/07/06 04:05:12;;;;;;;8.50;7.53;;;;;;;28.30;52.89;99439.68;1707518;82;21047;-59
2022/07/06 04:07:38;;;;;;;8.33;7.60;;;;;;;28.31;52.60;99438.64;1712338;83;21839;-59
2022/07/06 04:10:07;;;;;;;11.18;8.48;;;;;;;28.35;52.54;99435.39;1712872;83;21547;-58
2022/07/06 04:12:42;;;;;;;9.40;8.10;;;;;;;28.38;52.23;99432.83;1706774;82;21496;-59
2022/07/06 04:15:11;;;;;;;9.33;8.37;;;;;;;28.37;52.13;99437.05;1707177;82;21631;-59
2022/07/06 04:17:54;;;;;;;9.03;8.13;;;;;;;28.35;52.13;99426.45;1717725;81;21449;-59
2022/07/06 04:20:26;;;;;;;7.72;7.12;;;;;;;28.35;52.19;99424.58;1711273;83;21747;-58
2022/07/06 04:22:53;;;;;;;9.05;8.35;;;;;;;28.33;51.99;99422.58;1714849;83;21489;-58
2022/07/06 04:25:20;;;;;;;8.75;7.87;;;;;;;28.32;51.93;99416.83;1713749;83;21489;-58
2022/07/06 04:27:47;;;;;;;10.25;7.83;;;;;;;28.44;51.00;99413.66;1706551;82;21606;-59
2022/07/06 04:30:14;;;;;;;9.15;7.90;;;;;;;28.44;51.00;99413.66;1681104;83;21050;-58
2022/07/06 04:32:42;;;;;;;;;;;;;;;28.56;51.19;99413.56;1721050;82;21792;-58
2022/07/06 04:35:11;;;;;;;7.67;6.87;;;;;;;28.67;50.94;99419.84;1718183;82;20167;-59
2022/07/06 04:37:39;;;;;;;7.80;7.08;;;;;;;28.79;50.65;99409.38;1716797;82;21437;-59
2022/07/06 04:40:07;;;;;;;8.80;7.90;;;;;;;28.86;50.35;99403.53;1719289;82;21555;-59
2022/07/06 04:42:35;;;;;;;8.25;7.12;;;;;;;28.89;50.33;99405.01;1681186;84;21428;-59
2022/07/06 04:45:04;;;;;;;8.15;7.55;;;;;;;28.80;50.53;99401.59;1713453;82;25882;-59
2022/07/06 04:47:31;;;;;;;8.98;8.10;;;;;;;29.06;50.02;99407.80;1724280;82;21543;-59
2022/07/06 04:49:58;;;;;;;;;;;;;;;29.16;49.98;99402.62;1671423;84;21516;-58
2022/07/06 04:52:25;;;;;;;9.80;7.85;;;;;;;29.17;49.84;99405.67;1638914;85;20153;-59
2022/07/06 04:54:53;;;;;;;10.63;8.30;;;;;;;29.28;49.67;99392.98;1664877;85;21483;-58
2022/07/06 04:57:20;;;;;;;;;;;;;;;29.42;49.63;99390.73;1696590;82;21973;-58
2022/07/06 04:59:46;;;;;;;10.70;7.80;;;;;;;29.54;48.60;99388.86;1716068;82;20472;-59
2022/07/06 05:02:13;;;;;;;9.45;7.95;;;;;;;29.65;48.62;99385.62;1717935;82;21551;-58
2022/07/06 05:04:40;;;;;;;12.53;7.93;;;;;;;29.76;48.54;99387.83;1712057;82;21534;-58
2022/07/06 05:07:07;;;;;;;9.10;7.40;;;;;;;29.87;47.93;99383.72;1722079;82;21575;-59
2022/07/06 05:09:34;;;;;;;10.78;7.00;;;;;;;29.78;47.53;99380.83;1676906;84;21766;-59
2022/07/06 05:12:03;;;;;;;7.67;6.03;;;;;;;29.75;47.33;99379.36;1690684;82;21646;-60
2022/07/06 05:14:30;;;;;;;;;;;;;;;29.80;46.92;99373.34;1717182;82;21086;-60
2022/07/06 05:16:58;;;;;;;6.35;5.75;;;;;;;29.89;46.15;99366.25;1721894;82;20445;-61
2022/07/06 05:19:25;;;;;;;9.85;6.00;;;;;;;30.01;46.01;99363.81;1689501;82;21606;-60
2022/07/06 05:21:52;;;;;;;6.42;5.83;;;;;;;30.04;45.88;99363.39;1717767;82;21821;-60
2022/07/06 05:24:19;;;;;;;5.90;5.37;;;;;;;30.08;45.53;99367.91;1720185;82;21559;-60
2022/07/06 05:26:46;;;;;;;8.33;5.37;;;;;;;30.14;45.31;99364.42;1714739;82;21487;-60
2022/07/06 05:29:14;;;;;;;6.10;5.53;;;;;;;30.21;44.81;99367.98;1712884;82;21461;-61
2022/07/06 05:31:43;;;;;;;8.80;5.12;;;;;;;30.33;44.41;99364.73;1713891;82;21056;-61
2022/07/06 05:34:10;;;;;;;7.53;5.40;;;;;;;30.44;44.14;99362.31;1722869;82;21789;-61
2022/07/06 05:36:36;;;;;;;6.00;5.50;;;;;;;30.55;43.65;99358.69;1717674;82;21669;-60
2022/07/06 05:39:03;;;;;;;10.88;4.85;;;;;;;30.63;43.12;99367.50;1717615;82;21563;-60
2022/07/06 05:41:31;;;;;;;9.38;4.47;;;;;;;30.58;42.64;99378.11;1676755;84;21656;-60
2022/07/06 05:43:59;;;;;;;;;;;;;;;30.66;41.76;99379.28;1717678;82;21571;-60
2022/07/06 05:46:26;;;;;;;7.03;4.28;;;;;;;30.71;40.74;99356.98;1718355;82;22021;-61
2022/07/06 05:51:39;;;;;;;7.85;4.08;;;;;;;30.79;41.27;99355.97;1714863;82;21424;-62
2022/07/06 05:54:06;;;;;;;4.78;4.33;;;;;;;30.84;41.16;99365.70;1717845;82;21780;-64
2022/07/06 05:56:33;;;;;;;6.53;4.73;;;;;;;30.93;40.81;99360.44;1720532;82;21452;-60
2022/07/06 05:59:00;;;;;;;4.25;3.90;;;;;;;30.97;40.14;99356.27;1717428;82;21813;-59
2022/07/06 06:01:26;;;;;;;4.67;4.28;;;;;;;31.00;39.85;99348.22;1716397;82;21065;-59
2022/07/06 06:03:55;;;;;;;6.00;4.60;;;;;;;31.07;39.59;99344.17;1715535;81;21130;-59
2022/07/06 06:06:22;;;;;;;7.12;4.33;;;;;;;31.08;38.78;99342.62;1722940;81;21819;-60
2022/07/06 06:08:48;;;;;;;6.37;4.67;;;;;;;31.07;38.43;99339.58;1678595;83;21465;-60
2022/07/06 06:11:16;;;;;;;5.17;4.10;;;;;;;31.09;39.00;99335.30;1717242;82;21659;-60
2022/07/06 06:13:44;;;;;;;;;;;;;;;31.12;39.09;99341.66;1722679;81;21622;-60
2022/07/06 06:16:11;;;;;;;5.15;3.70;;;;;;;31.18;38.81;99333.53;1719353;81;20467;-61
2022/07/06 06:18:38;;;;;;;6.12;4.33;;;;;;;31.24;38.71;99332.69;1720817;82;21579;-60
2022/07/06 06:21:04;;;;;;;5.60;4.35;;;;;;;31.27;38.21;99330.10;1721855;82;21495;-62
2022/07/06 06:23:32;;;;;;;4.58;4.17;;;;;;;31.33;37.98;99327.08;1720809;81;21816;-62
2022/07/06 06:26:00;;;;;;;6.67;4.30;;;;;;;31.40;38.27;99323.31;1723348;82;21539;-61
2022/07/06 06:28:27;;;;;;;5.17;4.30;;;;;;;31.55;39.23;99319.06;1684932;83;20963;-60
2022/07/06 06:30:54;;;;;;;3.92;3.62;;;;;;;31.71;39.21;99314.23;1674830;84;28189;-60
2022/07/06 06:33:21;;;;;;;5.00;3.80;;;;;;;31.83;38.44;99311.16;1710694;82;21575;-59
2022/07/06 06:35:50;;;;;;;3.72;3.42;;;;;;;31.91;38.17;99309.59;1709562;83;21474;-61
2022/07/06 06:38:20;;;;;;;4.62;3.90;;;;;;;32.04;37.72;99307.91;1713224;83;21040;-63
2022/07/06 06:40:47;;;;;;;6.00;4.05;;;;;;;32.16;37.27;99307.04;1713833;83;21473;-61
2022/07/06 06:43:14;;;;;;;4.12;3.80;;;;;;;32.28;36.84;99305.84;1715877;83;21552;-63
2022/07/06 06:45:45;;;;;;;7.00;3.72;;;;;;;32.36;36.28;99304.25;1704780;83;21492;-61
2022/07/06 06:48:11;;;;;;;4.12;3.72;;;;;;;32.37;36.53;99303.19;1712239;83;22067;-62
2022/07/06 06:50:38;;;;;;;6.08;3.50;;;;;;;32.39;36.34;99304.33;1717137;83;21456;-61
2022/07/06 06:53:04;;;;;;;7.28;3.98;;;;;;;32.32;36.00;99296.19;1719442;83;21562;-61
2022/07/06 06:55:32;;;;;;;4.90;3.60;;;;;;;32.39;35.53;99295.64;1712684;82;21470;-63
2022/07/06 06:57:59;;;;;;;6.85;4.03;;;;;;;32.42;35.40;99297.11;1706318;82;21107;-62
2022/07/06 07:00:26;;;;;;;9.20;4.12;;;;;;;32.48;35.24;99294.88;1718592;83;22007;-63
2022/07/06 07:02:52;;;;;;;5.60;3.80;;;;;;;32.50;35.52;99295.49;1709617;82;21840;-64
2022/07/06 07:05:19;;;;;;;4.08;3.65;;;;;;;32.57;35.54;99300.95;1717153;83;22255;-62
2022/07/06 07:07:45;;;;;;;4.08;3.67;;;;;;;32.62;35.73;99292.12;1711266;82;21541;-60
2022/07/06 07:10:12;;;;;;;5.92;4.35;;;;;;;32.67;36.04;99291.77;1705614;83;21512;-60
2022/07/06 07:12:47;;;;;;;8.28;4.50;;;;;;;32.75;36.28;99289.31;1710584;81;21997;-60
2022/07/06 07:15:27;;;;;;;4.67;3.75;;;;;;;32.84;36.20;99294.81;1714280;81;21701;-61
2022/07/06 07:17:53;;;;;;;6.50;4.10;;;;;;;32.96;36.36;99288.98;1713657;81;21567;-62
2022/07/06 07:20:21;;;;;;;6.03;3.60;;;;;;;33.08;35.97;99285.55;1713404;82;21539;-62
2022/07/06 07:22:48;;;;;;;4.17;3.77;;;;;;;33.14;35.56;99282.79;1715504;83;21351;-62
2022/07/06 07:25:14;;;;;;;9.20;4.10;;;;;;;33.27;35.94;99282.39;1709857;83;22030;-61
2022/07/06 07:30:20;;;;;;;5.30;4.10;;;;;;;32.34;37.78;99279.66;1783777;78;23251;-62
2022/07/06 07:32:47;;;;;;;3.95;3.52;;;;;;;33.40;35.55;99271.88;1764032;79;21420;-62
2022/07/06 07:35:14;;;;;;;7.70;3.72;;;;;;;33.55;35.46;99259.59;1764563;80;21817;-62
2022/07/06 07:37:41;;;;;;;8.13;3.57;;;;;;;33.72;35.49;99261.23;1765228;80;21439;-62
2022/07/06 07:40:08;;;;;;;3.95;3.60;;;;;;;33.88;35.19;99262.50;1763338;79;22018;-62
2022/07/06 07:42:35;;;;;;;8.43;3.80;;;;;;;33.98;34.56;99257.88;1756279;79;21435;-60
2022/07/06 07:45:02;;;;;;;4.92;3.58;;;;;;;34.09;35.31;99259.84;1751700;79;21591;-61
2022/07/06 07:47:29;;;;;;;5.83;3.47;;;;;;;34.21;34.84;99263.20;1757790;79;21836;-60
2022/07/06 07:49:56;;;;;;;7.03;3.27;;;;;;;34.32;34.27;99261.06;1764490;79;21527;-61
2022/07/06 07:52:22;;;;;;;3.60;3.27;;;;;;;34.42;34.04;99256.44;1755567;80;21605;-62
2022/07/06 07:54:49;;;;;;;5.90;3.00;;;;;;;34.52;33.35;99258.07;1758959;79;22112;-61
2022/07/06 07:57:16;;;;;;;3.80;3.50;;;;;;;34.58;32.89;99257.67;1760382;80;21625;-63
2022/07/06 07:59:42;;;;;;;3.70;3.40;;;;;;;34.62;32.75;99258.87;1763470;80;21803;-62
2022/07/06 08:02:09;;;;;;;4.33;3.20;;;;;;;34.69;32.93;99262.37;1759275;79;21079;-61
2022/07/06 08:04:35;;;;;;;3.65;3.20;;;;;;;34.82;32.22;99256.70;1759425;80;21510;-61
2022/07/06 08:07:03;;;;;;;4.03;3.27;;;;;;;34.85;31.83;99260.89;1757452;79;21572;-61
2022/07/06 08:09:30;;;;;;;7.00;3.55;;;;;;;34.82;31.40;99266.27;1762860;80;21658;-60
2022/07/06 08:11:58;;;;;;;6.10;3.22;;;;;;;34.88;31.78;99260.41;1761796;80;21568;-61
2022/07/06 08:14:25;;;;;;;4.45;3.90;;;;;;;34.92;32.49;99260.77;1757665;79;21005;-60
2022/07/06 08:16:52;;;;;;;5.78;3.70;;;;;;;34.98;32.90;99258.45;1758370;79;29063;-60
2022/07/06 08:19:19;;;;;;;4.83;3.40;;;;;;;35.10;32.04;99257.95;1767526;79;21594;-61
2022/07/06 08:21:46;;;;;;;5.17;3.37;;;;;;;35.21;32.31;99257.17;1768831;79;20930;-62
2022/07/06 08:24:13;;;;;;;3.55;3.25;;;;;;;35.27;32.75;99255.39;1758383;79;21545;-62
2022/07/06 08:26:40;;;;;;;3.92;3.50;;;;;;;35.32;32.56;99254.67;1759630;79;21435;-62
2022/07/06 08:29:06;;;;;;;6.60;3.30;;;;;;;35.39;32.12;99251.30;1760655;80;21913;-63
2022/07/06 08:31:34;;;;;;;3.92;3.25;;;;;;;35.45;31.90;99251.19;1746944;80;21574;-65
2022/07/06 08:34:02;;;;;;;5.97;3.07;;;;;;;35.57;31.02;99233.95;1747248;80;21496;-63
2022/07/06 08:36:30;;;;;;;4.30;3.20;;;;;;;35.57;31.02;99233.95;1758891;80;21379;-65
2022/07/06 08:38:56;;;;;;;6.20;3.37;;;;;;;35.70;30.68;99235.09;1755710;80;21504;-66
2022/07/06 08:41:25;;;;;;;7.12;3.40;;;;;;;35.71;30.15;99235.91;1752653;80;21014;-63
2022/07/06 08:43:52;;;;;;;4.95;3.40;;;;;;;35.77;30.54;99233.58;1757115;80;21419;-62
2022/07/06 08:46:19;;;;;;;;;;;;;;;35.84;30.46;99233.73;1752879;80;21538;-62
2022/07/06 08:48:46;;;;;;;3.50;3.20;;;;;;;36.00;29.82;99239.01;1748589;80;21747;-62
2022/07/06 08:51:15;;;;;;;3.92;3.40;;;;;;;36.10;30.61;99232.91;1692329;83;21427;-62
2022/07/06 08:53:45;;;;;;;6.35;3.10;;;;;;;36.17;30.02;99232.27;1757357;80;21432;-62
2022/07/06 08:56:12;;;;;;;4.92;3.50;;;;;;;36.24;29.55;99230.22;1746057;80;21467;-63
2022/07/06 08:58:41;;;;;;;;;;;;;;;36.34;28.96;99226.02;1748138;80;21552;-63
2022/07/06 09:01:09;;;;;;;9.50;3.80;;;;;;;36.44;28.67;99222.09;1741135;80;21848;-65
2022/07/06 09:03:41;;;;;;;5.80;3.70;;;;;;;36.46;28.66;99219.94;1748141;80;21551;-62
2022/07/06 09:06:08;;;;;;;4.40;3.83;;;;;;;36.42;28.53;99223.70;1715375;82;21586;-61
2022/07/06 09:08:38;;;;;;;3.92;3.65;;;;;;;36.46;28.39;99215.02;1757846;80;21546;-62
2022/07/06 09:11:06;;;;;;;6.58;3.17;;;;;;;36.56;28.89;99212.45;1740928;80;21080;-62
2022/07/06 09:13:33;;;;;;;5.97;3.70;;;;;;;36.65;27.62;99200.02;1746223;80;21826;-61
2022/07/06 09:16:15;;;;;;;4.90;3.55;;;;;;;36.70;27.72;99208.36;1744633;80;21471;-61
2022/07/06 09:18:44;;;;;;;3.92;3.10;;;;;;;36.82;27.63;99211.84;1748405;80;21515;-62
2022/07/06 09:21:11;;;;;;;7.58;3.17;;;;;;;36.82;28.38;99203.63;1753702;80;21589;-61
2022/07/06 09:23:37;;;;;;;3.85;3.30;;;;;;;36.89;27.85;99195.80;1693226;83;21508;-62
2022/07/06 09:26:07;;;;;;;4.50;3.50;;;;;;;37.00;27.76;99199.81;1747493;80;21807;-61
2022/07/06 09:28:44;;;;;;;6.55;3.67;;;;;;;37.12;27.32;99190.67;1757679;80;21538;-61
2022/07/06 09:31:10;;;;;;;7.60;3.72;;;;;;;37.20;27.72;99191.64;1751720;80;21544;-61
2022/07/06 09:33:37;;;;;;;4.92;3.80;;;;;;;37.26;27.55;99185.17;1740491;80;21458;-62
2022/07/06 09:36:05;;;;;;;5.92;3.70;;;;;;;37.35;27.43;99182.81;1748471;80;21565;-63
2022/07/06 09:38:32;;;;;;;6.03;3.77;;;;;;;37.42;26.66;99187.58;1746576;80;21601;-61
2022/07/06 09:40:58;;;;;;;5.63;3.47;;;;;;;37.49;26.77;99177.27;1696889;82;21428;-61
2022/07/06 09:43:25;;;;;;;5.55;3.55;;;;;;;37.57;26.69;99180.11;1758262;80;21506;-61
2022/07/06 09:45:56;;;;;;;5.17;3.85;;;;;;;37.57;26.79;99180.92;1748191;80;21582;-60
2022/07/06 09:48:27;;;;;;;4.70;4.30;;;;;;;37.58;25.89;99179.86;1750335;80;21470;-58
2022/07/06 09:51:02;;;;;;;5.90;3.98;;;;;;;37.59;26.04;99173.83;1747943;80;21919;-59
2022/07/06 09:53:28;;;;;;;5.47;3.90;;;;;;;37.66;26.20;99170.39;1758122;80;21427;-59
2022/07/06 09:55:58;;;;;;;5.87;4.62;;;;;;;37.76;25.90;99162.27;1754850;80;21491;-60
2022/07/06 09:58:25;;;;;;;6.97;4.58;;;;;;;37.91;25.72;99169.03;1751457;80;21518;-60
2022/07/06 10:00:52;;;;;;;6.53;4.90;;;;;;;37.96;26.19;99164.98;1751350;80;21447;-60
2022/07/06 10:03:19;;;;;;;5.70;4.40;;;;;;;37.99;25.63;99161.70;1747246;80;21748;-59
2022/07/06 10:05:47;;;;;;;8.13;4.30;;;;;;;38.06;25.32;99158.78;1742626;80;21563;-61
2022/07/06 10:08:15;;;;;;;5.55;4.42;;;;;;;38.07;24.96;99155.78;1745317;80;21546;-60
2022/07/06 10:10:42;;;;;;;9.48;4.50;;;;;;;38.17;25.09;99143.55;1750564;80;21049;-60
2022/07/06 10:13:09;;;;;;;;;;;;;;;38.26;25.09;99148.56;1752915;80;21511;-60
2022/07/06 10:15:39;;;;;;;5.85;4.55;;;;;;;38.32;25.30;99151.11;1746539;80;20650;-59
2022/07/06 10:18:08;;;;;;;4.62;4.20;;;;;;;38.33;24.59;99145.92;1738676;80;21640;-59
2022/07/06 10:20:38;;;;;;;4.40;4.00;;;;;;;38.36;24.39;99154.99;1762498;80;21507;-60
2022/07/06 10:23:08;;;;;;;4.97;4.42;;;;;;;38.27;23.97;99144.20;1746100;80;21486;-61
2022/07/06 10:25:36;;;;;;;7.72;4.40;;;;;;;38.31;23.66;99139.84;1742734;80;21546;-64
2022/07/06 10:28:10;;;;;;;5.63;4.97;;;;;;;38.32;24.92;99137.39;1747448;80;21751;-60
2022/07/06 10:30:32;;;;;;;6.58;4.47;;;;;;;38.34;24.96;99128.34;1742584;80;22112;-61
2022/07/06 10:32:59;;;;;;;5.40;4.45;;;;;;;38.40;24.29;99130.59;1709614;81;21526;-62
2022/07/06 10:35:26;;;;;;;5.15;4.33;;;;;;;38.56;24.66;99128.82;1746123;80;21581;-61
2022/07/06 10:38:07;;;;;;;7.25;4.45;;;;;;;38.71;24.34;99126.75;1747184;80;21510;-61
2022/07/06 10:43:45;;;;;;;7.47;4.60;;;;;;;39.03;24.27;99117.66;1736934;81;20994;-61
2022/07/06 10:46:16;;;;;;;4.95;4.35;;;;;;;39.15;24.73;99115.55;1699459;82;21550;-62
2022/07/06 10:48:44;;;;;;;4.85;4.37;;;;;;;39.25;23.35;99112.83;1732462;80;21524;-60
2022/07/06 10:51:13;;;;;;;9.98;4.58;;;;;;;39.33;23.61;99112.34;1739613;81;21556;-60
2022/07/06 10:53:40;;;;;;;9.65;4.00;;;;;;;39.46;23.27;99113.78;1752241;80;22016;-60
2022/07/06 10:56:09;;;;;;;6.15;4.33;;;;;;;39.61;23.03;99103.39;1734411;81;21647;-60
2022/07/06 10:58:49;;;;;;;11.40;4.53;;;;;;;39.70;23.33;99093.52;1742889;81;21595;-60
2022/07/06 11:01:16;;;;;;;8.70;4.30;;;;;;;39.84;23.08;99089.72;1677067;83;21003;-61
2022/07/06 11:04:04;;;;;;;8.55;4.65;;;;;;;39.88;22.65;99085.32;1748203;80;21038;-63
2022/07/06 11:06:37;;;;;;;5.90;4.28;;;;;;;39.84;22.81;99081.47;1737886;80;21811;-60
2022/07/06 11:09:09;;;;;;;5.03;3.87;;;;;;;39.75;22.67;99069.34;1739887;81;21069;-59
2022/07/06 11:11:45;;;;;;;5.10;4.60;;;;;;;39.76;22.82;99073.73;1736744;81;20991;-59
2022/07/06 11:14:15;;;;;;;4.67;4.30;;;;;;;39.83;22.51;99067.42;1742390;81;21575;-60
2022/07/06 11:16:54;;;;;;;5.37;4.58;;;;;;;39.79;22.61;99055.87;1737634;81;21065;-62
2022/07/06 11:19:25;;;;;;;8.43;4.53;;;;;;;39.76;22.65;99051.72;1748187;80;21886;-58
2022/07/06 11:22:06;;;;;;;4.87;4.37;;;;;;;39.55;22.75;99053.59;1748197;81;21038;-59
2022/07/06 11:24:35;;;;;;;8.28;4.25;;;;;;;39.60;22.74;99045.92;1731667;80;21046;-59
2022/07/06 11:27:06;;;;;;;5.83;4.87;;;;;;;39.66;23.41;99050.34;1740135;81;21639;-59
2022/07/06 11:29:38;;;;;;;4.40;4.00;;;;;;;39.72;23.43;99042.36;1740987;80;22235;-59
2022/07/06 11:32:09;;;;;;;4.92;4.17;;;;;;;39.76;22.75;99037.96;1736500;82;21814;-59
2022/07/06 11:34:42;;;;;;;4.53;4.17;;;;;;;39.80;22.75;99047.31;1736848;82;21033;-58
2022/07/06 11:37:13;;;;;;;8.45;4.35;;;;;;;39.84;22.47;99042.95;1722562;80;21526;-59
2022/07/06 11:39:42;;;;;;;5.40;4.58;;;;;;;39.97;22.87;99047.66;1727988;80;21514;-60
2022/07/06 11:42:12;;;;;;;5.37;4.97;;;;;;;39.96;22.41;99050.97;1730368;82;21584;-59
2022/07/06 11:44:40;;;;;;;5.95;4.72;;;;;;;39.96;22.19;99050.97;1717596;80;21811;-59
2022/07/06 11:47:08;;;;;;;5.58;4.47;;;;;;;39.91;22.10;99042.70;1734149;80;22873;-58
2022/07/06 11:49:37;;;;;;;4.92;4.42;;;;;;;39.92;22.75;99044.89;1723593;80;21592;-60